sensor_id;sensor_type;location;lat;lon;timestamp;P1;durP1;ratioP1;P2;durP2;ratioP2
35745;SDS011;21870;42.812;74.628;2022-07-11T00:02:10;4.60;;;2.00;;
35745;SDS011;21870;42.812;74.628;2022-07-11T00:04:37;6.97;;;2.40;;
35745;SDS011;21870;42.812;74.628;2022-07-11T00:07:04;1.88;;;1.38;;
35745;SDS011;21870;42.812;74.628;2022-07-11T00:09:31;2.47;;;1.77;;
35745;SDS011;21870;42.812;74.628;2022-07-11T00:11:57;1.92;;;1.70;;
35745;SDS011;21870;42.812;74.628;2022-07-11T00:14:24;2.85;;;1.90;;
35745;SDS011;21870;42.812;74.628;2022-07-11T00:16:51;4.30;;;1.65;;
35745;SDS011;21870;42.812;74.628;2022-07-11T00:19:18;4.82;;;1.67;;
35745;SDS011;21870;42.812;74.628;2022-07-11T00:21:45;5.18;;;1.73;;
35745;SDS011;21870;42.812;74.628;2022-07-11T00:24:12;2.33;;;1.52;;
35745;SDS011;21870;42.812;74.628;2022-07-11T00:26:38;5.65;;;2.03;;
35745;SDS011;21870;42.812;74.628;2022-07-11T00:29:04;4.88;;;1.88;;
35745;SDS011;21870;42.812;74.628;2022-07-11T00:31:31;5.20;;;2.08;;
35745;SDS011;21870;42.812;74.628;2022-07-11T00:33:57;3.92;;;1.90;;
35745;SDS011;21870;42.812;74.628;2022-07-11T00:36:23;4.22;;;1.83;;
35745;SDS011;21870;42.812;74.628;2022-07-11T00:38:49;3.95;;;1.70;;
35745;SDS011;21870;42.812;74.628;2022-07-11T00:41:16;3.42;;;1.55;;
35745;SDS011;21870;42.812;74.628;2022-07-11T00:43:49;5.22;;;1.85;;
35745;SDS011;21870;42.812;74.628;2022-07-11T00:46:20;3.42;;;2.20;;
35745;SDS011;21870;42.812;74.628;2022-07-11T00:48:47;5.20;;;1.95;;
35745;SDS011;21870;42.812;74.628;2022-07-11T00:51:13;4.22;;;1.65;;
35745;SDS011;21870;42.812;74.628;2022-07-11T00:53:40;5.93;;;1.70;;
35745;SDS011;21870;42.812;74.628;2022-07-11T00:56:10;2.33;;;1.65;;
35745;SDS011;21870;42.812;74.628;2022-07-11T00:58:36;7.88;;;3.88;;
35745;SDS011;21870;42.812;74.628;2022-07-11T01:01:02;4.90;;;3.35;;
35745;SDS011;21870;42.812;74.628;2022-07-11T01:03:29;5.68;;;4.60;;
35745;SDS011;21870;42.812;74.628;2022-07-11T01:05:55;6.07;;;3.55;;
35745;SDS011;21870;42.812;74.628;2022-07-11T01:08:21;6.88;;;4.20;;
35745;SDS011;21870;42.812;74.628;2022-07-11T01:10:47;4.63;;;4.00;;
35745;SDS011;21870;42.812;74.628;2022-07-11T01:13:13;5.25;;;4.13;;
35745;SDS011;21870;42.812;74.628;2022-07-11T01:15:39;5.72;;;4.15;;
35745;SDS011;21870;42.812;74.628;2022-07-11T01:18:05;5.45;;;2.38;;
35745;SDS011;21870;42.812;74.628;2022-07-11T01:20:31;6.15;;;2.10;;
35745;SDS011;21870;42.812;74.628;2022-07-11T01:23:02;1.98;;;1.77;;
35745;SDS011;21870;42.812;74.628;2022-07-11T01:25:29;2.75;;;1.85;;
35745;SDS011;21870;42.812;74.628;2022-07-11T01:27:59;5.30;;;1.85;;
35745;SDS011;21870;42.812;74.628;2022-07-11T01:30:30;4.05;;;1.75;;
35745;SDS011;21870;42.812;74.628;2022-07-11T01:32:57;5.63;;;1.80;;
35745;SDS011;21870;42.812;74.628;2022-07-11T01:35:24;5.13;;;2.38;;
35745;SDS011;21870;42.812;74.628;2022-07-11T01:37:51;5.05;;;2.22;;
35745;SDS011;21870;42.812;74.628;2022-07-11T01:40:17;4.43;;;2.00;;
35745;SDS011;21870;42.812;74.628;2022-07-11T01:42:45;16.27;;;3.53;;
35745;SDS011;21870;42.812;74.628;2022-07-11T01:45:11;4.43;;;1.95;;
35745;SDS011;21870;42.812;74.628;2022-07-11T01:47:38;9.02;;;2.17;;
35745;SDS011;21870;42.812;74.628;2022-07-11T01:50:06;9.80;;;1.88;;
35745;SDS011;21870;42.812;74.628;2022-07-11T01:52:32;4.55;;;1.70;;
35745;SDS011;21870;42.812;74.628;2022-07-11T01:54:58;6.30;;;1.90;;
35745;SDS011;21870;42.812;74.628;2022-07-11T01:57:24;6.03;;;1.73;;
35745;SDS011;21870;42.812;74.628;2022-07-11T01:59:51;6.65;;;1.40;;
35745;SDS011;21870;42.812;74.628;2022-07-11T02:02:17;8.90;;;1.73;;
35745;SDS011;21870;42.812;74.628;2022-07-11T02:04:43;3.67;;;1.50;;
35745;SDS011;21870;42.812;74.628;2022-07-11T02:07:09;4.35;;;2.00;;
35745;SDS011;21870;42.812;74.628;2022-07-11T02:09:37;4.15;;;1.77;;
35745;SDS011;21870;42.812;74.628;2022-07-11T02:12:04;4.38;;;1.40;;
35745;SDS011;21870;42.812;74.628;2022-07-11T02:14:31;2.50;;;1.80;;
35745;SDS011;21870;42.812;74.628;2022-07-11T02:16:57;9.40;;;2.30;;
35745;SDS011;21870;42.812;74.628;2022-07-11T02:19:23;9.00;;;1.60;;
35745;SDS011;21870;42.812;74.628;2022-07-11T02:21:49;4.10;;;1.58;;
35745;SDS011;21870;42.812;74.628;2022-07-11T02:24:16;3.90;;;1.40;;
35745;SDS011;21870;42.812;74.628;2022-07-11T02:26:43;4.63;;;1.30;;
35745;SDS011;21870;42.812;74.628;2022-07-11T02:29:09;4.10;;;1.58;;
35745;SDS011;21870;42.812;74.628;2022-07-11T02:31:35;7.35;;;1.80;;
35745;SDS011;21870;42.812;74.628;2022-07-11T02:34:04;10.77;;;2.00;;
35745;SDS011;21870;42.812;74.628;2022-07-11T02:36:30;4.72;;;2.00;;
35745;SDS011;21870;42.812;74.628;2022-07-11T02:38:56;4.63;;;1.80;;
35745;SDS011;21870;42.812;74.628;2022-07-11T02:41:22;3.35;;;1.50;;
35745;SDS011;21870;42.812;74.628;2022-07-11T02:43:50;7.43;;;2.03;;
35745;SDS011;21870;42.812;74.628;2022-07-11T02:46:16;6.28;;;1.90;;
35745;SDS011;21870;42.812;74.628;2022-07-11T02:48:42;5.00;;;1.73;;
35745;SDS011;21870;42.812;74.628;2022-07-11T02:51:08;7.78;;;4.55;;
35745;SDS011;21870;42.812;74.628;2022-07-11T02:53:37;6.53;;;1.63;;
35745;SDS011;21870;42.812;74.628;2022-07-11T02:56:03;6.90;;;1.80;;
35745;SDS011;21870;42.812;74.628;2022-07-11T02:58:30;5.13;;;1.60;;
35745;SDS011;21870;42.812;74.628;2022-07-11T03:00:56;3.67;;;2.00;;
35745;SDS011;21870;42.812;74.628;2022-07-11T03:03:22;31.20;;;4.35;;
35745;SDS011;21870;42.812;74.628;2022-07-11T03:05:48;7.15;;;2.20;;
35745;SDS011;21870;42.812;74.628;2022-07-11T03:08:14;6.50;;;1.85;;
35745;SDS011;21870;42.812;74.628;2022-07-11T03:10:40;8.85;;;1.83;;
35745;SDS011;21870;42.812;74.628;2022-07-11T03:13:06;6.30;;;2.05;;
35745;SDS011;21870;42.812;74.628;2022-07-11T03:15:32;8.32;;;2.45;;
35745;SDS011;21870;42.812;74.628;2022-07-11T03:17:58;9.60;;;2.78;;
35745;SDS011;21870;42.812;74.628;2022-07-11T03:20:25;16.05;;;5.40;;
35745;SDS011;21870;42.812;74.628;2022-07-11T03:22:51;19.40;;;5.25;;
35745;SDS011;21870;42.812;74.628;2022-07-11T03:25:17;12.27;;;4.47;;
35745;SDS011;21870;42.812;74.628;2022-07-11T03:27:43;17.45;;;5.68;;
35745;SDS011;21870;42.812;74.628;2022-07-11T03:30:09;17.55;;;5.25;;
35745;SDS011;21870;42.812;74.628;2022-07-11T03:32:35;11.55;;;6.00;;
35745;SDS011;21870;42.812;74.628;2022-07-11T03:35:01;11.38;;;4.55;;
35745;SDS011;21870;42.812;74.628;2022-07-11T03:37:46;14.95;;;4.70;;
35745;SDS011;21870;42.812;74.628;2022-07-11T03:40:12;18.85;;;5.45;;
35745;SDS011;21870;42.812;74.628;2022-07-11T03:42:38;12.20;;;5.93;;
35745;SDS011;21870;42.812;74.628;2022-07-11T03:45:10;11.73;;;5.43;;
35745;SDS011;21870;42.812;74.628;2022-07-11T03:47:36;15.80;;;6.95;;
35745;SDS011;21870;42.812;74.628;2022-07-11T03:50:03;17.98;;;7.10;;
35745;SDS011;21870;42.812;74.628;2022-07-11T03:52:30;16.42;;;6.47;;
35745;SDS011;21870;42.812;74.628;2022-07-11T03:54:57;16.27;;;6.57;;
35745;SDS011;21870;42.812;74.628;2022-07-11T03:57:23;11.43;;;6.88;;
35745;SDS011;21870;42.812;74.628;2022-07-11T03:59:49;12.82;;;5.65;;
35745;SDS011;21870;42.812;74.628;2022-07-11T04:02:15;21.50;;;7.65;;
35745;SDS011;21870;42.812;74.628;2022-07-11T04:04:41;10.40;;;4.03;;
35745;SDS011;21870;42.812;74.628;2022-07-11T04:07:07;7.75;;;2.55;;
35745;SDS011;21870;42.812;74.628;2022-07-11T04:09:33;8.75;;;2.70;;
35745;SDS011;21870;42.812;74.628;2022-07-11T04:11:59;7.20;;;2.28;;
35745;SDS011;21870;42.812;74.628;2022-07-11T04:14:25;21.20;;;3.63;;
35745;SDS011;21870;42.812;74.628;2022-07-11T04:16:51;6.63;;;2.72;;
35745;SDS011;21870;42.812;74.628;2022-07-11T04:19:17;13.50;;;3.58;;
35745;SDS011;21870;42.812;74.628;2022-07-11T04:21:43;6.57;;;2.85;;
35745;SDS011;21870;42.812;74.628;2022-07-11T04:24:09;8.43;;;2.45;;
35745;SDS011;21870;42.812;74.628;2022-07-11T04:26:35;7.80;;;4.63;;
35745;SDS011;21870;42.812;74.628;2022-07-11T04:29:02;5.85;;;3.70;;
35745;SDS011;21870;42.812;74.628;2022-07-11T04:31:28;5.45;;;2.33;;
35745;SDS011;21870;42.812;74.628;2022-07-11T04:33:54;5.63;;;2.10;;
35745;SDS011;21870;42.812;74.628;2022-07-11T04:36:20;17.17;;;3.22;;
35745;SDS011;21870;42.812;74.628;2022-07-11T04:38:46;10.23;;;2.40;;
35745;SDS011;21870;42.812;74.628;2022-07-11T04:41:12;13.27;;;3.00;;
35745;SDS011;21870;42.812;74.628;2022-07-11T04:43:38;10.65;;;2.88;;
35745;SDS011;21870;42.812;74.628;2022-07-11T04:46:04;11.90;;;3.47;;
35745;SDS011;21870;42.812;74.628;2022-07-11T04:48:33;10.10;;;2.95;;
35745;SDS011;21870;42.812;74.628;2022-07-11T04:50:59;9.50;;;2.90;;
35745;SDS011;21870;42.812;74.628;2022-07-11T04:53:25;21.02;;;2.63;;
35745;SDS011;21870;42.812;74.628;2022-07-11T04:55:51;8.75;;;2.72;;
35745;SDS011;21870;42.812;74.628;2022-07-11T04:58:17;14.70;;;2.92;;
35745;SDS011;21870;42.812;74.628;2022-07-11T05:00:43;9.98;;;2.05;;
35745;SDS011;21870;42.812;74.628;2022-07-11T05:03:09;6.10;;;2.08;;
35745;SDS011;21870;42.812;74.628;2022-07-11T05:05:35;4.97;;;2.05;;
35745;SDS011;21870;42.812;74.628;2022-07-11T05:08:01;9.98;;;2.13;;
35745;SDS011;21870;42.812;74.628;2022-07-11T05:10:28;6.30;;;2.03;;
35745;SDS011;21870;42.812;74.628;2022-07-11T05:12:56;5.60;;;2.15;;
35745;SDS011;21870;42.812;74.628;2022-07-11T05:15:22;14.55;;;3.05;;
35745;SDS011;21870;42.812;74.628;2022-07-11T05:17:48;13.48;;;2.72;;
35745;SDS011;21870;42.812;74.628;2022-07-11T05:20:14;5.68;;;2.10;;
35745;SDS011;21870;42.812;74.628;2022-07-11T05:22:41;5.13;;;2.22;;
35745;SDS011;21870;42.812;74.628;2022-07-11T05:25:07;7.65;;;2.35;;
35745;SDS011;21870;42.812;74.628;2022-07-11T05:27:33;6.28;;;2.40;;
35745;SDS011;21870;42.812;74.628;2022-07-11T05:29:59;11.60;;;2.42;;
35745;SDS011;21870;42.812;74.628;2022-07-11T05:32:26;4.53;;;2.47;;
35745;SDS011;21870;42.812;74.628;2022-07-11T05:34:52;8.00;;;2.50;;
35745;SDS011;21870;42.812;74.628;2022-07-11T05:37:19;5.40;;;2.47;;
35745;SDS011;21870;42.812;74.628;2022-07-11T05:39:45;10.57;;;2.45;;
35745;SDS011;21870;42.812;74.628;2022-07-11T05:42:11;4.88;;;1.98;;
35745;SDS011;21870;42.812;74.628;2022-07-11T05:44:38;9.18;;;2.05;;
35745;SDS011;21870;42.812;74.628;2022-07-11T05:47:04;11.35;;;2.50;;
35745;SDS011;21870;42.812;74.628;2022-07-11T05:49:31;11.02;;;2.13;;
35745;SDS011;21870;42.812;74.628;2022-07-11T05:51:57;6.45;;;2.47;;
35745;SDS011;21870;42.812;74.628;2022-07-11T05:54:23;3.85;;;1.83;;
35745;SDS011;21870;42.812;74.628;2022-07-11T05:56:49;12.18;;;3.45;;
35745;SDS011;21870;42.812;74.628;2022-07-11T05:59:15;8.38;;;3.67;;
35745;SDS011;21870;42.812;74.628;2022-07-11T06:01:41;2.95;;;1.50;;
35745;SDS011;21870;42.812;74.628;2022-07-11T06:04:07;6.93;;;2.00;;
35745;SDS011;21870;42.812;74.628;2022-07-11T06:06:34;2.90;;;1.60;;
35745;SDS011;21870;42.812;74.628;2022-07-11T06:09:00;7.32;;;1.58;;
35745;SDS011;21870;42.812;74.628;2022-07-11T06:11:26;4.40;;;1.40;;
35745;SDS011;21870;42.812;74.628;2022-07-11T06:13:52;7.22;;;1.70;;
35745;SDS011;21870;42.812;74.628;2022-07-11T06:16:18;9.73;;;1.92;;
35745;SDS011;21870;42.812;74.628;2022-07-11T06:18:44;2.97;;;1.90;;
35745;SDS011;21870;42.812;74.628;2022-07-11T06:21:10;8.40;;;2.13;;
35745;SDS011;21870;42.812;74.628;2022-07-11T06:23:36;7.18;;;2.60;;
35745;SDS011;21870;42.812;74.628;2022-07-11T06:26:03;9.00;;;2.92;;
35745;SDS011;21870;42.812;74.628;2022-07-11T06:28:29;9.90;;;4.03;;
35745;SDS011;21870;42.812;74.628;2022-07-11T06:30:56;7.80;;;3.58;;
35745;SDS011;21870;42.812;74.628;2022-07-11T06:33:22;25.35;;;3.83;;
35745;SDS011;21870;42.812;74.628;2022-07-11T06:35:48;11.68;;;2.97;;
35745;SDS011;21870;42.812;74.628;2022-07-11T06:38:15;15.13;;;3.63;;
35745;SDS011;21870;42.812;74.628;2022-07-11T06:40:42;13.52;;;3.97;;
35745;SDS011;21870;42.812;74.628;2022-07-11T06:43:11;21.23;;;4.07;;
35745;SDS011;21870;42.812;74.628;2022-07-11T06:45:37;15.85;;;3.50;;
35745;SDS011;21870;42.812;74.628;2022-07-11T06:48:04;10.73;;;3.72;;
35745;SDS011;21870;42.812;74.628;2022-07-11T06:50:31;13.75;;;3.47;;
35745;SDS011;21870;42.812;74.628;2022-07-11T06:53:01;10.15;;;3.47;;
35745;SDS011;21870;42.812;74.628;2022-07-11T06:55:28;10.18;;;3.90;;
35745;SDS011;21870;42.812;74.628;2022-07-11T06:57:55;16.58;;;3.80;;
35745;SDS011;21870;42.812;74.628;2022-07-11T07:00:21;8.73;;;2.55;;
35745;SDS011;21870;42.812;74.628;2022-07-11T07:02:47;10.13;;;2.47;;
35745;SDS011;21870;42.812;74.628;2022-07-11T07:05:13;7.05;;;2.50;;
35745;SDS011;21870;42.812;74.628;2022-07-11T07:07:39;29.67;;;5.00;;
35745;SDS011;21870;42.812;74.628;2022-07-11T07:10:05;22.83;;;4.03;;
35745;SDS011;21870;42.812;74.628;2022-07-11T07:12:32;20.27;;;4.35;;
35745;SDS011;21870;42.812;74.628;2022-07-11T07:15:02;17.77;;;3.42;;
35745;SDS011;21870;42.812;74.628;2022-07-11T07:17:29;71.85;;;8.23;;
35745;SDS011;21870;42.812;74.628;2022-07-11T07:19:56;30.80;;;5.20;;
35745;SDS011;21870;42.812;74.628;2022-07-11T07:22:23;32.30;;;5.13;;
35745;SDS011;21870;42.812;74.628;2022-07-11T07:24:49;14.88;;;3.05;;
35745;SDS011;21870;42.812;74.628;2022-07-11T07:27:15;18.20;;;3.65;;
35745;SDS011;21870;42.812;74.628;2022-07-11T07:29:41;24.08;;;2.92;;
35745;SDS011;21870;42.812;74.628;2022-07-11T07:32:07;24.60;;;2.85;;
35745;SDS011;21870;42.812;74.628;2022-07-11T07:34:33;25.15;;;3.40;;
35745;SDS011;21870;42.812;74.628;2022-07-11T07:37:00;11.45;;;2.60;;
35745;SDS011;21870;42.812;74.628;2022-07-11T07:39:26;10.55;;;1.85;;
35745;SDS011;21870;42.812;74.628;2022-07-11T07:41:52;5.88;;;2.10;;
35745;SDS011;21870;42.812;74.628;2022-07-11T07:44:18;12.00;;;2.30;;
35745;SDS011;21870;42.812;74.628;2022-07-11T07:46:44;36.50;;;4.35;;
35745;SDS011;21870;42.812;74.628;2022-07-11T07:49:11;30.08;;;4.35;;
35745;SDS011;21870;42.812;74.628;2022-07-11T07:51:38;28.88;;;4.35;;
35745;SDS011;21870;42.812;74.628;2022-07-11T07:54:04;11.27;;;3.22;;
35745;SDS011;21870;42.812;74.628;2022-07-11T07:56:30;12.82;;;2.63;;
35745;SDS011;21870;42.812;74.628;2022-07-11T07:58:56;7.28;;;2.35;;
35745;SDS011;21870;42.812;74.628;2022-07-11T08:01:22;4.15;;;3.75;;
35745;SDS011;21870;42.812;74.628;2022-07-11T08:04:08;1.85;;;1.00;;
35745;SDS011;21870;42.812;74.628;2022-07-11T08:06:35;3.53;;;1.15;;
35745;SDS011;21870;42.812;74.628;2022-07-11T08:09:02;5.28;;;1.23;;
35745;SDS011;21870;42.812;74.628;2022-07-11T08:11:29;7.68;;;2.15;;
35745;SDS011;21870;42.812;74.628;2022-07-11T08:13:55;8.63;;;2.90;;
35745;SDS011;21870;42.812;74.628;2022-07-11T08:16:22;8.27;;;3.20;;
35745;SDS011;21870;42.812;74.628;2022-07-11T08:18:48;8.27;;;2.55;;
35745;SDS011;21870;42.812;74.628;2022-07-11T08:21:14;9.23;;;3.30;;
35745;SDS011;21870;42.812;74.628;2022-07-11T08:23:40;7.80;;;2.70;;
35745;SDS011;21870;42.812;74.628;2022-07-11T08:26:07;4.75;;;2.90;;
35745;SDS011;21870;42.812;74.628;2022-07-11T08:28:36;25.75;;;4.72;;
35745;SDS011;21870;42.812;74.628;2022-07-11T08:31:02;10.68;;;3.10;;
35745;SDS011;21870;42.812;74.628;2022-07-11T08:33:28;4.95;;;3.08;;
35745;SDS011;21870;42.812;74.628;2022-07-11T08:35:54;8.30;;;3.67;;
35745;SDS011;21870;42.812;74.628;2022-07-11T08:38:20;4.85;;;3.10;;
35745;SDS011;21870;42.812;74.628;2022-07-11T08:40:48;8.20;;;4.13;;
35745;SDS011;21870;42.812;74.628;2022-07-11T08:43:16;7.15;;;3.55;;
35745;SDS011;21870;42.812;74.628;2022-07-11T08:45:43;5.25;;;3.53;;
35745;SDS011;21870;42.812;74.628;2022-07-11T08:48:10;7.65;;;3.47;;
35745;SDS011;21870;42.812;74.628;2022-07-11T08:50:38;6.57;;;3.17;;
35745;SDS011;21870;42.812;74.628;2022-07-11T08:53:04;9.93;;;3.35;;
35745;SDS011;21870;42.812;74.628;2022-07-11T08:55:30;7.43;;;2.47;;
35745;SDS011;21870;42.812;74.628;2022-07-11T08:57:57;9.35;;;2.38;;
35745;SDS011;21870;42.812;74.628;2022-07-11T09:00:23;6.15;;;1.98;;
35745;SDS011;21870;42.812;74.628;2022-07-11T09:02:49;3.63;;;2.03;;
35745;SDS011;21870;42.812;74.628;2022-07-11T09:05:18;8.48;;;3.00;;
35745;SDS011;21870;42.812;74.628;2022-07-11T09:07:44;4.88;;;2.67;;
35745;SDS011;21870;42.812;74.628;2022-07-11T09:10:12;11.73;;;2.72;;
35745;SDS011;21870;42.812;74.628;2022-07-11T09:13:01;4.32;;;2.50;;
35745;SDS011;21870;42.812;74.628;2022-07-11T09:18:01;2.72;;;1.88;;
35745;SDS011;21870;42.812;74.628;2022-07-11T09:20:28;5.85;;;1.95;;
35745;SDS011;21870;42.812;74.628;2022-07-11T09:23:33;5.20;;;1.95;;
35745;SDS011;21870;42.812;74.628;2022-07-11T09:26:17;5.35;;;1.75;;
35745;SDS011;21870;42.812;74.628;2022-07-11T09:28:57;2.80;;;1.50;;
35745;SDS011;21870;42.812;74.628;2022-07-11T09:31:24;3.65;;;1.58;;
35745;SDS011;21870;42.812;74.628;2022-07-11T09:33:57;2.03;;;1.20;;
35745;SDS011;21870;42.812;74.628;2022-07-11T09:39:06;1.20;;;0.90;;
35745;SDS011;21870;42.812;74.628;2022-07-11T09:41:34;1.77;;;0.98;;
35745;SDS011;21870;42.812;74.628;2022-07-11T09:44:12;1.85;;;1.00;;
35745;SDS011;21870;42.812;74.628;2022-07-11T09:46:46;1.65;;;0.75;;
35745;SDS011;21870;42.812;74.628;2022-07-11T09:49:17;4.03;;;1.02;;
35745;SDS011;21870;42.812;74.628;2022-07-11T09:52:14;2.65;;;0.70;;
35745;SDS011;21870;42.812;74.628;2022-07-11T09:54:57;1.00;;;0.63;;
35745;SDS011;21870;42.812;74.628;2022-07-11T09:57:29;2.63;;;0.80;;
35745;SDS011;21870;42.812;74.628;2022-07-11T09:59:56;1.02;;;0.60;;
35745;SDS011;21870;42.812;74.628;2022-07-11T10:02:23;0.73;;;0.55;;
35745;SDS011;21870;42.812;74.628;2022-07-11T10:04:49;4.78;;;0.80;;
35745;SDS011;21870;42.812;74.628;2022-07-11T10:07:16;0.93;;;0.60;;
35745;SDS011;21870;42.812;74.628;2022-07-11T10:09:42;6.03;;;0.82;;
35745;SDS011;21870;42.812;74.628;2022-07-11T10:12:08;9.57;;;1.17;;
35745;SDS011;21870;42.812;74.628;2022-07-11T10:14:38;5.07;;;0.82;;
35745;SDS011;21870;42.812;74.628;2022-07-11T10:17:09;5.40;;;0.90;;
35745;SDS011;21870;42.812;74.628;2022-07-11T10:20:08;3.78;;;1.00;;
35745;SDS011;21870;42.812;74.628;2022-07-11T10:22:44;4.22;;;1.30;;
35745;SDS011;21870;42.812;74.628;2022-07-11T10:28:43;3.22;;;1.20;;
35745;SDS011;21870;42.812;74.628;2022-07-11T10:31:18;6.38;;;1.52;;
35745;SDS011;21870;42.812;74.628;2022-07-11T10:36:34;3.00;;;1.30;;
35745;SDS011;21870;42.812;74.628;2022-07-11T10:41:41;4.35;;;1.20;;
35745;SDS011;21870;42.812;74.628;2022-07-11T10:44:08;6.30;;;1.40;;
35745;SDS011;21870;42.812;74.628;2022-07-11T10:46:34;4.57;;;1.88;;
35745;SDS011;21870;42.812;74.628;2022-07-11T10:57:31;5.20;;;1.55;;
35745;SDS011;21870;42.812;74.628;2022-07-11T11:00:09;5.40;;;1.60;;
35745;SDS011;21870;42.812;74.628;2022-07-11T11:05:47;3.97;;;1.67;;
35745;SDS011;21870;42.812;74.628;2022-07-11T11:11:04;7.00;;;1.55;;
35745;SDS011;21870;42.812;74.628;2022-07-11T11:16:46;11.25;;;2.00;;
35745;SDS011;21870;42.812;74.628;2022-07-11T11:22:18;4.50;;;2.03;;
35745;SDS011;21870;42.812;74.628;2022-07-11T11:24:47;3.05;;;1.40;;
35745;SDS011;21870;42.812;74.628;2022-07-11T11:27:16;5.75;;;2.22;;
35745;SDS011;21870;42.812;74.628;2022-07-11T11:29:47;4.00;;;1.30;;
35745;SDS011;21870;42.812;74.628;2022-07-11T11:32:17;6.90;;;1.83;;
35745;SDS011;21870;42.812;74.628;2022-07-11T11:34:44;3.78;;;1.58;;
35745;SDS011;21870;42.812;74.628;2022-07-11T11:37:10;2.88;;;1.70;;
35745;SDS011;21870;42.812;74.628;2022-07-11T11:39:37;3.67;;;1.67;;
35745;SDS011;21870;42.812;74.628;2022-07-11T11:42:05;2.53;;;1.30;;
35745;SDS011;21870;42.812;74.628;2022-07-11T11:47:45;5.18;;;1.25;;
35745;SDS011;21870;42.812;74.628;2022-07-11T11:50:13;2.42;;;1.25;;
35745;SDS011;21870;42.812;74.628;2022-07-11T11:52:40;4.47;;;1.50;;
35745;SDS011;21870;42.812;74.628;2022-07-11T11:55:06;5.38;;;1.60;;
35745;SDS011;21870;42.812;74.628;2022-07-11T11:57:34;4.88;;;1.30;;
35745;SDS011;21870;42.812;74.628;2022-07-11T12:00:00;2.03;;;1.45;;
35745;SDS011;21870;42.812;74.628;2022-07-11T12:02:28;6.28;;;1.30;;
35745;SDS011;21870;42.812;74.628;2022-07-11T12:04:58;5.63;;;1.55;;
35745;SDS011;21870;42.812;74.628;2022-07-11T12:07:25;7.28;;;1.15;;
35745;SDS011;21870;42.812;74.628;2022-07-11T12:09:53;4.55;;;1.33;;
35745;SDS011;21870;42.812;74.628;2022-07-11T12:12:23;3.72;;;1.40;;
35745;SDS011;21870;42.812;74.628;2022-07-11T12:17:57;10.13;;;1.60;;
35745;SDS011;21870;42.812;74.628;2022-07-11T12:20:38;7.25;;;1.42;;
35745;SDS011;21870;42.812;74.628;2022-07-11T12:23:06;4.75;;;1.33;;
35745;SDS011;21870;42.812;74.628;2022-07-11T12:25:34;6.20;;;1.40;;
35745;SDS011;21870;42.812;74.628;2022-07-11T12:28:00;4.00;;;1.77;;
35745;SDS011;21870;42.812;74.628;2022-07-11T12:30:26;5.53;;;1.73;;
35745;SDS011;21870;42.812;74.628;2022-07-11T12:33:06;10.32;;;1.92;;
35745;SDS011;21870;42.812;74.628;2022-07-11T12:35:36;4.70;;;1.90;;
35745;SDS011;21870;42.812;74.628;2022-07-11T12:38:18;9.48;;;2.10;;
35745;SDS011;21870;42.812;74.628;2022-07-11T12:41:03;8.07;;;2.22;;
35745;SDS011;21870;42.812;74.628;2022-07-11T12:43:49;5.35;;;2.13;;
35745;SDS011;21870;42.812;74.628;2022-07-11T12:46:35;3.95;;;1.52;;
35745;SDS011;21870;42.812;74.628;2022-07-11T12:49:05;5.32;;;1.60;;
35745;SDS011;21870;42.812;74.628;2022-07-11T12:51:36;5.65;;;1.58;;
35745;SDS011;21870;42.812;74.628;2022-07-11T12:54:07;4.80;;;1.40;;
35745;SDS011;21870;42.812;74.628;2022-07-11T12:56:38;4.03;;;1.67;;
35745;SDS011;21870;42.812;74.628;2022-07-11T12:59:05;5.78;;;1.88;;
35745;SDS011;21870;42.812;74.628;2022-07-11T13:04:40;4.93;;;2.00;;
35745;SDS011;21870;42.812;74.628;2022-07-11T13:10:09;7.88;;;2.22;;
35745;SDS011;21870;42.812;74.628;2022-07-11T13:12:37;9.05;;;2.05;;
35745;SDS011;21870;42.812;74.628;2022-07-11T13:15:06;4.45;;;1.90;;
35745;SDS011;21870;42.812;74.628;2022-07-11T13:17:44;9.80;;;1.98;;
35745;SDS011;21870;42.812;74.628;2022-07-11T13:20:15;5.28;;;2.65;;
35745;SDS011;21870;42.812;74.628;2022-07-11T13:22:44;7.60;;;2.42;;
35745;SDS011;21870;42.812;74.628;2022-07-11T13:25:11;5.50;;;3.17;;
35745;SDS011;21870;42.812;74.628;2022-07-11T13:27:39;6.82;;;2.65;;
35745;SDS011;21870;42.812;74.628;2022-07-11T13:30:06;5.78;;;2.70;;
35745;SDS011;21870;42.812;74.628;2022-07-11T13:32:40;5.95;;;2.40;;
35745;SDS011;21870;42.812;74.628;2022-07-11T13:35:06;5.68;;;3.00;;
35745;SDS011;21870;42.812;74.628;2022-07-11T13:37:33;8.80;;;2.92;;
35745;SDS011;21870;42.812;74.628;2022-07-11T13:40:08;8.70;;;2.70;;
35745;SDS011;21870;42.812;74.628;2022-07-11T13:42:38;5.97;;;2.67;;
35745;SDS011;21870;42.812;74.628;2022-07-11T13:45:05;3.67;;;2.15;;
35745;SDS011;21870;42.812;74.628;2022-07-11T13:47:33;9.25;;;2.13;;
35745;SDS011;21870;42.812;74.628;2022-07-11T13:49:59;5.50;;;1.95;;
35745;SDS011;21870;42.812;74.628;2022-07-11T13:52:26;6.85;;;2.15;;
35745;SDS011;21870;42.812;74.628;2022-07-11T13:54:53;10.20;;;2.15;;
35745;SDS011;21870;42.812;74.628;2022-07-11T13:57:19;11.48;;;2.78;;
35745;SDS011;21870;42.812;74.628;2022-07-11T13:59:46;10.10;;;2.33;;
35745;SDS011;21870;42.812;74.628;2022-07-11T14:02:13;2.95;;;2.13;;
35745;SDS011;21870;42.812;74.628;2022-07-11T14:04:39;4.60;;;2.22;;
35745;SDS011;21870;42.812;74.628;2022-07-11T14:07:06;4.68;;;2.33;;
35745;SDS011;21870;42.812;74.628;2022-07-11T14:09:37;8.35;;;2.50;;
35745;SDS011;21870;42.812;74.628;2022-07-11T14:12:04;9.10;;;2.95;;
35745;SDS011;21870;42.812;74.628;2022-07-11T14:14:30;9.68;;;4.10;;
35745;SDS011;21870;42.812;74.628;2022-07-11T14:16:58;6.28;;;2.50;;
35745;SDS011;21870;42.812;74.628;2022-07-11T14:19:24;6.68;;;3.10;;
35745;SDS011;21870;42.812;74.628;2022-07-11T14:21:52;11.05;;;3.53;;
35745;SDS011;21870;42.812;74.628;2022-07-11T14:24:18;5.35;;;3.13;;
35745;SDS011;21870;42.812;74.628;2022-07-11T14:26:44;4.72;;;2.53;;
35745;SDS011;21870;42.812;74.628;2022-07-11T14:29:11;3.97;;;2.40;;
35745;SDS011;21870;42.812;74.628;2022-07-11T14:31:39;5.55;;;2.60;;
35745;SDS011;21870;42.812;74.628;2022-07-11T14:34:05;7.22;;;2.17;;
35745;SDS011;21870;42.812;74.628;2022-07-11T14:36:32;11.90;;;2.80;;
35745;SDS011;21870;42.812;74.628;2022-07-11T14:38:58;4.60;;;3.55;;
35745;SDS011;21870;42.812;74.628;2022-07-11T14:41:24;8.85;;;2.65;;
35745;SDS011;21870;42.812;74.628;2022-07-11T14:43:50;6.25;;;2.97;;
35745;SDS011;21870;42.812;74.628;2022-07-11T14:46:16;4.10;;;2.17;;
35745;SDS011;21870;42.812;74.628;2022-07-11T14:48:43;5.97;;;2.00;;
35745;SDS011;21870;42.812;74.628;2022-07-11T14:51:12;4.47;;;2.35;;
35745;SDS011;21870;42.812;74.628;2022-07-11T14:53:38;3.53;;;2.33;;
35745;SDS011;21870;42.812;74.628;2022-07-11T14:56:04;4.32;;;2.63;;
35745;SDS011;21870;42.812;74.628;2022-07-11T14:58:30;8.70;;;2.42;;
35745;SDS011;21870;42.812;74.628;2022-07-11T15:00:58;8.13;;;2.45;;
35745;SDS011;21870;42.812;74.628;2022-07-11T15:03:24;11.32;;;3.13;;
35745;SDS011;21870;42.812;74.628;2022-07-11T15:06:03;9.27;;;2.45;;
35745;SDS011;21870;42.812;74.628;2022-07-11T15:08:33;7.30;;;3.30;;
35745;SDS011;21870;42.812;74.628;2022-07-11T15:11:18;12.90;;;4.78;;
35745;SDS011;21870;42.812;74.628;2022-07-11T15:14:03;11.55;;;3.97;;
35745;SDS011;21870;42.812;74.628;2022-07-11T15:16:30;6.10;;;3.40;;
35745;SDS011;21870;42.812;74.628;2022-07-11T15:18:57;4.65;;;3.10;;
35745;SDS011;21870;42.812;74.628;2022-07-11T15:21:24;6.45;;;3.25;;
35745;SDS011;21870;42.812;74.628;2022-07-11T15:23:51;14.27;;;4.40;;